createdAt,value
2019-02-10T00:02:25.162Z,96844.79
2019-02-10T00:05:31.737Z,96848.16
2019-02-10T00:08:38.197Z,96852.76
2019-02-10T00:11:45.032Z,96855.63
2019-02-10T00:14:51.504Z,96849.36
2019-02-10T00:17:58.257Z,96846.59
2019-02-10T00:21:05.062Z,96850.13
2019-02-10T00:24:11.785Z,96841.20
2019-02-10T00:27:18.998Z,96843.52
2019-02-10T00:30:25.185Z,96833.27
2019-02-10T00:33:31.950Z,96837.00
2019-02-10T00:36:38.685Z,96837.41
2019-02-10T00:39:45.040Z,96830.97
2019-02-10T00:42:51.516Z,96829.34
2019-02-10T00:45:58.263Z,96827.59
2019-02-10T00:49:05.197Z,96823.11
2019-02-10T00:52:11.627Z,96818.70
2019-02-10T00:55:18.471Z,96824.05
2019-02-10T00:58:24.943Z,96819.60
2019-02-10T01:01:32.024Z,96802.50
2019-02-10T01:04:38.871Z,96795.84
2019-02-10T01:07:45.316Z,96797.39
2019-02-10T01:10:52.206Z,96792.70
2019-02-10T01:13:59.017Z,96793.48
2019-02-10T01:17:06.033Z,96785.52
2019-02-10T01:20:12.710Z,96783.68
2019-02-10T01:23:18.836Z,96778.42
2019-02-10T01:26:25.470Z,96772.36
2019-02-10T01:29:31.777Z,96769.73
2019-02-10T01:32:38.076Z,96761.64
2019-02-10T01:35:44.703Z,96757.88
2019-02-10T01:38:51.275Z,96753.61
2019-02-10T01:41:57.963Z,96743.95
2019-02-10T01:45:04.358Z,96735.87
2019-02-10T01:48:11.027Z,96725.52
2019-02-10T01:51:17.584Z,96729.23
2019-02-10T01:54:24.246Z,96727.61
2019-02-10T01:57:31.647Z,96720.69
2019-02-10T02:00:39.102Z,96709.11
2019-02-10T02:03:45.904Z,96697.22
2019-02-10T02:06:57.732Z,96689.97
2019-02-10T02:10:00.898Z,96690.02
2019-02-10T02:13:07.710Z,96687.88
2019-02-10T02:16:14.723Z,96686.04
2019-02-10T02:19:21.230Z,96686.21
2019-02-10T02:22:28.391Z,96676.00
2019-02-10T02:25:34.620Z,96666.41
2019-02-10T02:28:43.428Z,96659.80
2019-02-10T02:31:50.644Z,96651.67
2019-02-10T02:34:57.719Z,96655.53
2019-02-10T02:38:04.292Z,96657.09
2019-02-10T02:41:11.256Z,96633.80
2019-02-10T02:44:17.823Z,96647.95
2019-02-10T02:47:24.250Z,96651.66
2019-02-10T02:50:30.583Z,96654.53
2019-02-10T02:53:37.334Z,96650.13
2019-02-10T02:56:43.539Z,96650.53
2019-02-10T02:59:49.819Z,96646.40
2019-02-10T03:02:56.507Z,96621.19
2019-02-10T03:08:59.134Z,96580.75
2019-02-10T03:12:05.792Z,96577.66
2019-02-10T03:15:12.230Z,96561.52
2019-02-10T03:18:18.654Z,96557.79
2019-02-10T03:21:26.281Z,96541.86
2019-02-10T03:24:33.123Z,96541.77
2019-02-10T03:27:39.704Z,96534.00
2019-02-10T03:30:46.505Z,96541.02
2019-02-10T03:33:53.286Z,96534.42
2019-02-10T03:37:00.139Z,96542.21
2019-02-10T03:40:07.016Z,96525.23
2019-02-10T03:43:13.258Z,96532.52
2019-02-10T03:46:19.612Z,96509.86
2019-02-10T03:49:26.099Z,96485.49
2019-02-10T03:52:32.788Z,96476.94
2019-02-10T03:55:39.416Z,96467.45
2019-02-10T03:58:46.090Z,96468.94
2019-02-10T04:01:53.176Z,96455.88
2019-02-10T04:04:59.507Z,96455.22
2019-02-10T04:08:06.188Z,96441.86
2019-02-10T04:11:12.721Z,96443.86
2019-02-10T04:14:19.641Z,96435.34
2019-02-10T04:17:25.821Z,96434.64
2019-02-10T04:20:32.818Z,96437.64
2019-02-10T04:23:39.451Z,96430.77
2019-02-10T04:26:46.364Z,96422.17
2019-02-10T04:29:53.305Z,96417.27
2019-02-10T04:33:00.105Z,96405.77
2019-02-10T04:36:07.236Z,96383.37
2019-02-10T04:39:13.969Z,96378.66
2019-02-10T04:42:20.441Z,96359.38
2019-02-10T04:45:27.132Z,96342.91
2019-02-10T04:48:33.530Z,96340.84
2019-02-10T04:51:40.115Z,96323.29
2019-02-10T04:54:46.771Z,96318.22
2019-02-10T04:57:53.554Z,96300.23
2019-02-10T05:01:00.020Z,96285.73
2019-02-10T05:04:06.823Z,96276.56
2019-02-10T05:07:13.185Z,96271.31
2019-02-10T05:10:21.753Z,96253.41
2019-02-10T05:13:28.570Z,96259.16
2019-02-10T05:16:37.733Z,96249.75
2019-02-10T05:19:43.999Z,96243.78
2019-02-10T05:22:50.995Z,96224.35
2019-02-10T05:25:57.621Z,96216.34
2019-02-10T05:29:04.649Z,96203.72
2019-02-10T05:32:11.320Z,96184.41
2019-02-10T05:35:17.928Z,96186.80
2019-02-10T05:38:24.328Z,96171.27
2019-02-10T05:41:31.187Z,96167.09
2019-02-10T05:44:38.243Z,96151.34
2019-02-10T05:47:44.922Z,96140.94
2019-02-10T05:50:51.664Z,96150.61
2019-02-10T05:53:58.190Z,96152.92
2019-02-10T05:57:05.389Z,96147.44
2019-02-10T06:00:12.265Z,96154.00
2019-02-10T06:03:18.585Z,96140.78
2019-02-10T06:06:25.973Z,96144.47
2019-02-10T06:09:32.745Z,96133.78
2019-02-10T06:12:39.926Z,96130.34
2019-02-10T06:15:46.359Z,96123.07
2019-02-10T06:18:53.913Z,96118.69
2019-02-10T06:22:00.542Z,96110.58
2019-02-10T06:25:07.620Z,96099.75
2019-02-10T06:28:14.191Z,96078.88
2019-02-10T06:31:25.879Z,96070.56
2019-02-10T06:34:33.324Z,96064.25
2019-02-10T06:37:40.219Z,96059.51
2019-02-10T06:40:47.238Z,96054.41
2019-02-10T06:43:54.163Z,96052.59
2019-02-10T06:47:01.858Z,96049.59
2019-02-10T06:50:09.954Z,96047.55
2019-02-10T06:53:16.672Z,96039.73
2019-02-10T06:56:24.239Z,96027.93
2019-02-10T06:59:43.092Z,96020.73
2019-02-10T07:04:02.731Z,96010.92
2019-02-10T07:07:09.508Z,96010.81
2019-02-10T07:10:16.633Z,95995.74
2019-02-10T07:13:39.809Z,95988.12
2019-02-10T07:17:01.218Z,95995.31
2019-02-10T07:20:42.241Z,95983.08
2019-02-10T07:23:59.526Z,95992.05
2019-02-10T07:27:18.941Z,95963.53
2019-02-10T07:30:46.284Z,95956.44
2019-02-10T07:34:23.475Z,95940.36
2019-02-10T07:38:02.497Z,95937.91
2019-02-10T07:41:50.127Z,95926.30
2019-02-10T07:45:27.580Z,95921.73
2019-02-10T07:49:06.693Z,95908.73
2019-02-10T07:52:37.532Z,95893.95
2019-02-10T07:56:20.831Z,95895.27
2019-02-10T08:00:16.812Z,95882.13
2019-02-10T08:03:34.758Z,95884.72
2019-02-10T08:07:28.401Z,95863.48
2019-02-10T08:11:22.054Z,95859.41
2019-02-10T08:14:47.023Z,95855.69
2019-02-10T08:18:21.621Z,95831.02
2019-02-10T08:21:57.609Z,95812.03
2019-02-10T08:25:45.538Z,95809.63
2019-02-10T08:29:38.821Z,95808.31
2019-02-10T08:33:24.815Z,95807.39
2019-02-10T08:37:01.185Z,95792.13
2019-02-10T08:40:53.582Z,95797.25
2019-02-10T08:44:28.524Z,95780.36
2019-02-10T08:48:14.286Z,95767.65
2019-02-10T08:52:14.923Z,95750.16
2019-02-10T08:55:23.897Z,95727.65
2019-02-10T08:58:33.196Z,95715.89
2019-02-10T09:01:44.567Z,95692.75
2019-02-10T09:04:52.254Z,95685.21
2019-02-10T09:08:00.525Z,95659.23
2019-02-10T09:11:09.854Z,95649.22
2019-02-10T09:14:17.368Z,95619.84
2019-02-10T09:17:25.879Z,95637.34
2019-02-10T09:20:32.847Z,95602.16
2019-02-10T09:23:39.389Z,95573.06
2019-02-10T09:26:48.991Z,95560.48
2019-02-10T09:29:55.377Z,95551.42
2019-02-10T09:33:02.925Z,95527.08
2019-02-10T09:36:09.560Z,95521.86
2019-02-10T09:39:17.251Z,95507.19
2019-02-10T09:42:23.901Z,95490.06
2019-02-10T09:45:30.622Z,95494.33
2019-02-10T09:48:37.006Z,95488.53
2019-02-10T09:51:44.512Z,95470.06
2019-02-10T09:54:53.643Z,95488.14
2019-02-10T09:58:03.440Z,95471.41
2019-02-10T10:01:10.470Z,95472.91
2019-02-10T10:04:17.000Z,95486.06
2019-02-10T10:07:23.560Z,95482.31
2019-02-10T10:10:30.439Z,95455.48
2019-02-10T10:13:37.844Z,95483.11
2019-02-10T10:16:44.677Z,95481.81
2019-02-10T10:19:51.819Z,95471.38
2019-02-10T10:22:58.235Z,95481.13
2019-02-10T10:26:05.165Z,95479.67
2019-02-10T10:29:11.957Z,95458.52
2019-02-10T10:32:18.796Z,95470.16
2019-02-10T10:35:26.597Z,95440.38
2019-02-10T10:38:37.851Z,95463.52
2019-02-10T10:41:44.996Z,95463.81
2019-02-10T10:44:51.500Z,95463.89
2019-02-10T10:47:58.086Z,95470.88
2019-02-10T10:51:04.651Z,95453.95
2019-02-10T10:54:11.746Z,95452.90
2019-02-10T10:57:18.840Z,95429.30
2019-02-10T11:00:25.930Z,95436.40
2019-02-10T11:03:35.141Z,95421.03
2019-02-10T11:06:42.042Z,95411.52
2019-02-10T11:09:49.419Z,95406.62
2019-02-10T11:12:56.663Z,95402.67
2019-02-10T11:16:03.283Z,95385.42
2019-02-10T11:19:10.079Z,95377.53
2019-02-10T11:22:16.691Z,95377.34
2019-02-10T11:25:23.510Z,95369.88
2019-02-10T11:28:30.352Z,95358.93
2019-02-10T11:31:38.175Z,95343.67
2019-02-10T11:34:46.226Z,95319.98
2019-02-10T11:37:53.203Z,95316.42
2019-02-10T11:40:59.762Z,95317.34
2019-02-10T11:44:06.640Z,95283.66
2019-02-10T11:47:13.810Z,95305.11
2019-02-10T11:50:20.656Z,95290.86
2019-02-10T11:53:27.521Z,95281.89
2019-02-10T11:56:34.617Z,95272.77
2019-02-10T11:59:41.635Z,95267.49
2019-02-10T12:02:48.766Z,95266.69
2019-02-10T12:05:55.494Z,95268.63
2019-02-10T12:09:04.789Z,95259.08
2019-02-10T12:12:12.765Z,95274.69
2019-02-10T12:15:20.666Z,95261.66
2019-02-10T12:18:27.499Z,95261.92
2019-02-10T12:21:37.656Z,95252.23
2019-02-10T12:24:44.538Z,95247.67
2019-02-10T12:27:51.011Z,95252.93
2019-02-10T12:30:57.830Z,95234.05
2019-02-10T12:34:04.809Z,95251.13
2019-02-10T12:37:11.482Z,95247.67
2019-02-10T12:40:18.831Z,95264.22
2019-02-10T12:43:25.815Z,95241.50
2019-02-10T12:46:32.647Z,95236.38
2019-02-10T12:49:39.829Z,95234.93
2019-02-10T12:52:46.811Z,95252.48
2019-02-10T12:55:54.000Z,95239.86
2019-02-10T12:59:00.498Z,95232.20
2019-02-10T13:02:07.259Z,95219.94
2019-02-10T13:05:14.670Z,95209.86
2019-02-10T13:08:21.340Z,95204.50
2019-02-10T13:11:28.357Z,95203.98
2019-02-10T13:14:34.665Z,95193.68
2019-02-10T13:17:41.924Z,95195.34
2019-02-10T13:20:48.697Z,95192.41
2019-02-10T13:23:55.118Z,95183.09
2019-02-10T13:27:03.076Z,95188.66
2019-02-10T13:30:11.367Z,95183.07
2019-02-10T13:33:18.853Z,95178.53
2019-02-10T13:36:25.756Z,95176.08
2019-02-10T13:39:34.257Z,95182.80
2019-02-10T13:42:41.333Z,95177.70
2019-02-10T13:45:48.116Z,95182.78
2019-02-10T13:48:54.829Z,95182.27
2019-02-10T13:52:04.145Z,95178.34
2019-02-10T13:55:11.847Z,95178.09
2019-02-10T13:58:18.899Z,95187.30
2019-02-10T14:01:25.792Z,95182.42
2019-02-10T14:04:32.849Z,95182.05
2019-02-10T14:07:39.916Z,95188.33
2019-02-10T14:10:46.353Z,95171.25
2019-02-10T14:13:54.552Z,95180.13
2019-02-10T14:17:01.936Z,95173.73
2019-02-10T14:20:11.516Z,95175.55
2019-02-10T14:23:18.472Z,95177.05
2019-02-10T14:26:25.445Z,95171.75
2019-02-10T14:29:32.538Z,95174.49
2019-02-10T14:32:39.250Z,95181.12
2019-02-10T14:35:46.125Z,95201.23
2019-02-10T14:38:55.765Z,95198.73
2019-02-10T14:42:03.769Z,95196.79
2019-02-10T14:45:12.819Z,95209.19
2019-02-10T14:48:21.126Z,95188.81
2019-02-10T14:51:28.666Z,95168.43
2019-02-10T14:54:35.879Z,95164.47
2019-02-10T14:57:42.668Z,95154.97
2019-02-10T15:00:49.428Z,95145.12
2019-02-10T15:03:56.194Z,95137.12
2019-02-10T15:07:03.112Z,95130.23
2019-02-10T15:10:11.965Z,95120.53
2019-02-10T15:13:22.915Z,95113.27
2019-02-10T15:16:30.956Z,95127.91
2019-02-10T15:19:38.424Z,95106.38
2019-02-10T15:22:46.045Z,95115.45
2019-02-10T15:25:53.962Z,95111.83
2019-02-10T15:29:00.644Z,95090.96
2019-02-10T15:32:08.073Z,95076.31
2019-02-10T15:35:14.700Z,95083.75
2019-02-10T15:38:22.042Z,95080.62
2019-02-10T15:41:29.297Z,95071.27
2019-02-10T15:44:36.579Z,95070.95
2019-02-10T15:47:43.226Z,95073.58
2019-02-10T15:50:49.892Z,95067.33
2019-02-10T15:53:57.005Z,95058.94
2019-02-10T15:57:03.862Z,95059.45
2019-02-10T16:00:15.971Z,95056.50
2019-02-10T16:03:22.993Z,95066.36
2019-02-10T16:06:30.261Z,95071.91
2019-02-10T16:09:37.469Z,95084.45
2019-02-10T16:12:44.617Z,95097.26
2019-02-10T16:15:51.596Z,95094.80
2019-02-10T16:18:58.659Z,95101.67
2019-02-10T16:22:05.540Z,95123.66
2019-02-10T16:25:16.117Z,95128.59
2019-02-10T16:28:27.711Z,95113.75
2019-02-10T16:31:35.190Z,95104.67
2019-02-10T16:34:42.014Z,95100.30
2019-02-10T16:37:49.136Z,95118.62
2019-02-10T16:40:56.478Z,95114.02
2019-02-10T16:44:04.553Z,95119.48
2019-02-10T16:47:11.137Z,95111.70
2019-02-10T16:50:17.659Z,95124.50
2019-02-10T16:53:25.836Z,95136.38
2019-02-10T16:56:32.472Z,95137.39
2019-02-10T16:59:39.419Z,95139.18
2019-02-10T17:02:46.119Z,95140.40
2019-02-10T17:05:53.208Z,95133.91
2019-02-10T17:09:00.272Z,95123.53
2019-02-10T17:12:07.178Z,95128.14
2019-02-10T17:15:14.033Z,95132.05
2019-02-10T17:18:21.971Z,95117.70
2019-02-10T17:21:28.824Z,95108.45
2019-02-10T17:24:36.563Z,95111.65
2019-02-10T17:27:43.678Z,95126.72
2019-02-10T17:30:50.833Z,95133.09
2019-02-10T17:33:57.829Z,95117.55
2019-02-10T17:37:04.883Z,95122.39
2019-02-10T17:40:18.850Z,95142.28
2019-02-10T17:43:28.133Z,95155.21
2019-02-10T17:46:36.228Z,95166.34
2019-02-10T17:49:43.194Z,95166.34
2019-02-10T17:52:50.133Z,95177.50
2019-02-10T17:55:57.149Z,95183.25
2019-02-10T17:59:04.261Z,95192.69
2019-02-10T18:02:10.820Z,95191.01
2019-02-10T18:05:18.283Z,95204.86
2019-02-10T18:08:25.096Z,95215.86
2019-02-10T18:11:32.425Z,95231.83
2019-02-10T18:14:57.001Z,95235.97
2019-02-10T18:18:11.509Z,95248.57
2019-02-10T18:21:30.950Z,95240.07
2019-02-10T18:24:50.184Z,95234.95
2019-02-10T18:28:12.593Z,95242.27
2019-02-10T18:31:38.227Z,95230.52
2019-02-10T18:35:09.584Z,95232.06
2019-02-10T18:38:26.782Z,95214.70
2019-02-10T18:42:00.882Z,95208.25
2019-02-10T18:45:35.607Z,95218.22
2019-02-10T18:49:01.071Z,95212.57
2019-02-10T18:52:14.329Z,95217.26
2019-02-10T18:55:28.904Z,95209.72
2019-02-10T18:58:54.657Z,95218.08
2019-02-10T19:02:27.063Z,95235.52
2019-02-10T19:05:52.588Z,95229.31
2019-02-10T19:09:11.219Z,95248.84
2019-02-10T19:12:36.952Z,95255.41
2019-02-10T19:15:53.176Z,95250.16
2019-02-10T19:19:18.408Z,95258.02
2019-02-10T19:22:51.521Z,95264.30
2019-02-10T19:26:14.763Z,95268.23
2019-02-10T19:29:41.179Z,95268.52
2019-02-10T19:32:55.592Z,95264.17
2019-02-10T19:36:10.601Z,95266.75
2019-02-10T19:39:45.335Z,95254.16
2019-02-10T19:43:26.448Z,95257.48
2019-02-10T19:46:48.171Z,95243.80
2019-02-10T19:50:13.080Z,95232.73
2019-02-10T19:53:26.005Z,95240.95
2019-02-10T19:56:57.761Z,95247.30
2019-02-10T20:00:28.597Z,95239.06
2019-02-10T20:04:03.168Z,95242.24
2019-02-10T20:07:38.313Z,95249.38
2019-02-10T20:11:03.824Z,95269.34
2019-02-10T20:14:30.344Z,95265.90
2019-02-10T20:18:05.544Z,95278.13
2019-02-10T20:21:46.212Z,95265.15
2019-02-10T20:25:01.046Z,95268.88
2019-02-10T20:28:27.813Z,95291.91
2019-02-10T20:32:09.619Z,95302.94
2019-02-10T20:35:31.413Z,95312.86
2019-02-10T20:39:03.436Z,95319.34
2019-02-10T20:42:33.540Z,95330.70
2019-02-10T20:46:05.623Z,95339.05
2019-02-10T20:49:29.287Z,95333.14
2019-02-10T20:52:51.505Z,95341.33
2019-02-10T20:56:09.774Z,95342.97
2019-02-10T20:59:24.398Z,95342.09
2019-02-10T21:02:39.388Z,95359.45
2019-02-10T21:06:11.132Z,95341.28
2019-02-10T21:09:38.189Z,95348.59
2019-02-10T21:13:16.326Z,95364.48
2019-02-10T21:16:51.091Z,95360.00
2019-02-10T21:20:15.713Z,95370.14
2019-02-10T21:23:39.942Z,95377.13
2019-02-10T21:27:05.217Z,95392.47
2019-02-10T21:30:29.621Z,95399.50
2019-02-10T21:33:43.935Z,95406.05
2019-02-10T21:37:12.918Z,95425.84
2019-02-10T21:40:39.070Z,95437.24
2019-02-10T21:44:00.307Z,95466.05
2019-02-10T21:47:20.984Z,95473.56
2019-02-10T21:50:27.982Z,95472.38
2019-02-10T21:53:35.195Z,95471.55
2019-02-10T21:56:42.067Z,95463.16
2019-02-10T21:59:48.811Z,95446.09
2019-02-10T22:02:55.412Z,95448.78
2019-02-10T22:06:02.746Z,95428.17
2019-02-10T22:09:09.876Z,95424.03
2019-02-10T22:12:16.378Z,95418.28
2019-02-10T22:15:22.891Z,95425.72
2019-02-10T22:18:29.455Z,95411.73
2019-02-10T22:21:37.352Z,95418.63
2019-02-10T22:24:43.910Z,95444.44
2019-02-10T22:27:51.465Z,95445.94
2019-02-10T22:30:58.317Z,95452.81
2019-02-10T22:34:04.995Z,95455.63
2019-02-10T22:37:12.075Z,95458.23
2019-02-10T22:40:18.776Z,95466.69
2019-02-10T22:43:25.928Z,95477.94
2019-02-10T22:46:32.204Z,95481.98
2019-02-10T22:49:39.312Z,95498.00
2019-02-10T22:52:46.181Z,95507.13
2019-02-10T22:55:53.415Z,95517.45
2019-02-10T22:58:59.916Z,95522.20
2019-02-10T23:02:07.152Z,95537.58
2019-02-10T23:05:14.433Z,95547.81
2019-02-10T23:08:21.091Z,95556.87
2019-02-10T23:11:28.304Z,95560.66
2019-02-10T23:14:35.917Z,95563.55
2019-02-10T23:17:43.143Z,95573.19
2019-02-10T23:20:50.226Z,95571.05
2019-02-10T23:23:56.739Z,95567.69
2019-02-10T23:27:03.656Z,95579.94
2019-02-10T23:30:10.520Z,95584.68
2019-02-10T23:33:17.025Z,95590.48
2019-02-10T23:36:23.924Z,95571.92
2019-02-10T23:39:30.832Z,95589.61
2019-02-10T23:42:37.535Z,95597.13
2019-02-10T23:45:44.012Z,95597.37
2019-02-10T23:48:50.566Z,95606.52
2019-02-10T23:51:58.543Z,95604.05
2019-02-10T23:55:05.939Z,95615.19
2019-02-10T23:58:12.969Z,95623.42
